createdAt,value
2017-05-17T00:00:37.124Z,78.03
2017-05-17T00:01:38.547Z,78.52
2017-05-17T00:02:39.979Z,77.94
2017-05-17T00:03:41.416Z,77.75
2017-05-17T00:04:42.847Z,76.69
2017-05-17T00:05:44.276Z,75.82
2017-05-17T00:06:45.712Z,76.31
2017-05-17T00:07:47.141Z,77.04
2017-05-17T00:08:48.571Z,77.61
2017-05-17T00:09:50.001Z,76.07
2017-05-17T00:10:52.304Z,75.79
2017-05-17T00:11:53.733Z,76.07
2017-05-17T00:12:55.173Z,76.84
2017-05-17T00:13:56.611Z,76.36
2017-05-17T00:14:58.041Z,77.33
2017-05-17T00:15:59.494Z,75.92
2017-05-17T00:17:00.977Z,76.84
2017-05-17T00:18:02.420Z,75.11
2017-05-17T00:19:03.843Z,76.84
2017-05-17T00:20:05.276Z,76.11
2017-05-17T00:21:06.708Z,77.33
2017-05-17T00:22:08.151Z,76.26
2017-05-17T00:23:09.583Z,77.90
2017-05-17T00:24:11.015Z,77.71
2017-05-17T00:25:12.446Z,77.71
2017-05-17T00:26:13.881Z,76.84
2017-05-17T00:27:15.323Z,77.33
2017-05-17T00:28:16.775Z,78.48
2017-05-17T00:29:18.203Z,78.48
2017-05-17T00:30:19.630Z,76.81
2017-05-17T00:31:21.852Z,77.00
2017-05-17T00:32:23.295Z,77.29
2017-05-17T00:33:24.739Z,77.00
2017-05-17T00:34:26.171Z,76.84
2017-05-17T00:35:27.605Z,76.04
2017-05-17T00:36:29.029Z,75.75
2017-05-17T00:37:30.462Z,75.65
2017-05-17T00:38:31.889Z,76.52
2017-05-17T00:39:33.335Z,76.61
2017-05-17T00:40:34.763Z,75.94
2017-05-17T00:41:36.196Z,76.23
2017-05-17T00:42:37.627Z,76.61
2017-05-17T00:43:39.719Z,77.00
2017-05-17T00:44:41.150Z,76.52
2017-05-17T00:45:42.611Z,76.71
2017-05-17T00:46:44.040Z,76.42
2017-05-17T00:47:45.468Z,77.09
2017-05-17T00:48:46.899Z,76.71
2017-05-17T00:49:48.332Z,76.81
2017-05-17T00:50:49.761Z,77.63
2017-05-17T00:51:51.192Z,78.21
2017-05-17T00:52:52.619Z,77.34
2017-05-17T00:53:54.053Z,77.48
2017-05-17T00:54:55.490Z,77.58
2017-05-17T00:55:56.914Z,77.67
2017-05-17T00:56:58.346Z,77.29
2017-05-17T00:57:59.780Z,77.48
2017-05-17T00:59:01.211Z,76.96
2017-05-17T01:00:02.642Z,76.71
2017-05-17T01:01:04.072Z,77.58
2017-05-17T01:02:05.501Z,76.23
2017-05-17T01:03:06.933Z,76.61
2017-05-17T01:04:08.360Z,76.04
2017-05-17T01:05:09.803Z,75.37
2017-05-17T01:06:11.228Z,76.04
2017-05-17T01:07:12.712Z,76.52
2017-05-17T01:08:14.149Z,76.52
2017-05-17T01:09:15.592Z,76.23
2017-05-17T01:10:17.011Z,76.32
2017-05-17T01:11:18.450Z,75.17
2017-05-17T01:12:19.878Z,76.52
2017-05-17T01:13:21.308Z,76.81
2017-05-17T01:14:22.746Z,76.71
2017-05-17T01:15:24.179Z,76.52
2017-05-17T01:16:25.615Z,76.52
2017-05-17T01:17:27.051Z,76.32
2017-05-17T01:18:28.479Z,76.81
2017-05-17T01:19:29.905Z,77.09
2017-05-17T01:20:31.349Z,76.61
2017-05-17T01:21:32.888Z,76.04
2017-05-17T01:22:34.324Z,74.30
2017-05-17T01:23:35.751Z,76.52
2017-05-17T01:24:37.195Z,75.84
2017-05-17T01:25:38.673Z,76.52
2017-05-17T01:26:40.101Z,75.46
2017-05-17T01:27:41.535Z,75.94
2017-05-17T01:28:43.001Z,75.84
2017-05-17T01:29:44.431Z,76.04
2017-05-17T01:30:45.863Z,76.71
2017-05-17T01:31:47.322Z,76.52
2017-05-17T01:32:48.756Z,77.58
2017-05-17T01:33:50.184Z,76.52
2017-05-17T01:34:51.617Z,77.29
2017-05-17T01:35:53.045Z,78.34
2017-05-17T01:36:54.483Z,78.25
2017-05-17T01:37:55.918Z,77.86
2017-05-17T01:38:57.357Z,78.53
2017-05-17T01:39:58.890Z,77.86
2017-05-17T01:41:00.323Z,77.96
2017-05-17T01:42:01.756Z,78.50
2017-05-17T01:43:03.189Z,78.50
2017-05-17T01:44:04.620Z,78.30
2017-05-17T01:45:06.055Z,78.53
2017-05-17T01:46:07.483Z,79.02
2017-05-17T01:47:08.917Z,79.11
2017-05-17T01:48:10.351Z,78.34
2017-05-17T01:49:11.786Z,78.40
2017-05-17T01:50:13.223Z,80.61
2017-05-17T01:51:14.659Z,80.42
2017-05-17T01:52:16.093Z,80.13
2017-05-17T01:53:17.519Z,80.51
2017-05-17T01:54:18.958Z,80.17
2017-05-17T01:55:20.388Z,80.61
2017-05-17T01:56:21.823Z,79.07
2017-05-17T01:57:23.259Z,79.50
2017-05-17T01:58:24.692Z,79.46
2017-05-17T01:59:26.171Z,79.84
2017-05-17T02:00:27.555Z,79.50
2017-05-17T02:01:28.988Z,79.50
2017-05-17T02:02:30.421Z,79.50
2017-05-17T02:03:31.862Z,79.75
2017-05-17T02:04:33.304Z,78.88
2017-05-17T02:05:34.732Z,78.30
2017-05-17T02:06:36.156Z,79.36
2017-05-17T02:07:37.589Z,80.61
2017-05-17T02:08:39.027Z,80.61
2017-05-17T02:09:40.454Z,80.17
2017-05-17T02:10:41.889Z,79.98
2017-05-17T02:11:43.321Z,79.94
2017-05-17T02:12:44.755Z,79.55
2017-05-17T02:13:46.189Z,79.07
2017-05-17T02:14:47.621Z,79.07
2017-05-17T02:15:49.052Z,79.36
2017-05-17T02:16:50.484Z,78.44
2017-05-17T02:17:51.913Z,77.96
2017-05-17T02:18:53.350Z,78.44
2017-05-17T02:19:54.775Z,78.59
2017-05-17T02:20:56.206Z,79.07
2017-05-17T02:21:57.637Z,78.02
2017-05-17T02:22:59.074Z,77.92
2017-05-17T02:24:00.504Z,77.58
2017-05-17T02:25:01.934Z,77.53
2017-05-17T02:26:03.373Z,78.34
2017-05-17T02:27:04.805Z,79.11
2017-05-17T02:28:06.241Z,78.06
2017-05-17T02:29:07.670Z,79.40
2017-05-17T02:30:09.105Z,78.44
2017-05-17T02:31:10.534Z,76.81
2017-05-17T02:32:11.958Z,76.67
2017-05-17T02:33:13.389Z,76.52
2017-05-17T02:34:14.824Z,77.67
2017-05-17T02:35:16.258Z,76.90
2017-05-17T02:36:17.677Z,77.96
2017-05-17T02:37:19.111Z,77.00
2017-05-17T02:38:20.542Z,77.00
2017-05-17T02:39:21.974Z,77.25
2017-05-17T02:40:23.403Z,76.48
2017-05-17T02:41:24.833Z,75.62
2017-05-17T02:42:28.877Z,77.00
2017-05-17T02:43:30.299Z,77.48
2017-05-17T02:44:31.733Z,77.00
2017-05-17T02:45:33.229Z,75.42
2017-05-17T02:46:34.661Z,75.52
2017-05-17T02:47:36.093Z,76.48
2017-05-17T02:48:37.518Z,76.52
2017-05-17T02:49:38.957Z,76.04
2017-05-17T02:50:40.393Z,76.23
2017-05-17T02:51:41.827Z,77.58
2017-05-17T02:52:43.257Z,76.81
2017-05-17T02:53:44.731Z,76.52
2017-05-17T02:54:46.157Z,75.94
2017-05-17T02:55:47.592Z,75.90
2017-05-17T02:56:49.029Z,74.37
2017-05-17T02:57:50.469Z,73.98
2017-05-17T02:58:51.897Z,74.55
2017-05-17T02:59:53.421Z,73.79
2017-05-17T03:00:54.846Z,75.13
2017-05-17T03:01:56.281Z,74.85
2017-05-17T03:02:57.712Z,73.69
2017-05-17T03:03:59.265Z,73.98
2017-05-17T03:05:00.702Z,73.50
2017-05-17T03:06:02.132Z,72.44
2017-05-17T03:07:03.564Z,71.39
2017-05-17T03:08:04.996Z,69.46
2017-05-17T03:09:06.425Z,70.37
2017-05-17T03:10:07.851Z,68.73
2017-05-17T03:11:10.212Z,69.40
2017-05-17T03:12:10.665Z,69.89
2017-05-17T03:13:12.095Z,70.37
2017-05-17T03:14:13.526Z,68.73
2017-05-17T03:15:14.949Z,69.31
2017-05-17T03:16:16.390Z,68.54
2017-05-17T03:17:17.815Z,68.15
2017-05-17T03:18:19.249Z,66.91
2017-05-17T03:19:20.678Z,68.15
2017-05-17T03:20:22.125Z,65.56
2017-05-17T03:21:23.561Z,66.14
2017-05-17T03:22:25.043Z,65.97
2017-05-17T03:23:26.419Z,64.60
2017-05-17T03:24:27.853Z,65.27
2017-05-17T03:25:29.285Z,64.02
2017-05-17T03:26:31.444Z,64.53
2017-05-17T03:27:32.869Z,63.86
2017-05-17T03:28:34.304Z,63.38
2017-05-17T03:29:35.733Z,64.34
2017-05-17T03:30:37.170Z,63.28
2017-05-17T03:31:38.603Z,65.11
2017-05-17T03:32:41.447Z,65.11
2017-05-17T03:33:42.907Z,64.53
2017-05-17T03:34:44.339Z,65.11
2017-05-17T03:35:45.779Z,64.92
2017-05-17T03:36:47.207Z,65.40
2017-05-17T03:37:48.639Z,65.69
2017-05-17T03:38:50.079Z,66.27
2017-05-17T03:39:51.505Z,65.88
2017-05-17T03:40:52.937Z,66.04
2017-05-17T03:41:54.370Z,66.42
2017-05-17T03:42:55.799Z,66.23
2017-05-17T03:43:57.234Z,65.08
2017-05-17T03:44:58.665Z,66.42
2017-05-17T03:46:00.095Z,67.86
2017-05-17T03:47:01.534Z,65.84
2017-05-17T03:48:02.964Z,65.66
2017-05-17T03:49:04.393Z,68.54
2017-05-17T03:50:05.823Z,67.77
2017-05-17T03:51:07.255Z,65.88
2017-05-17T03:52:08.685Z,65.46
2017-05-17T03:53:10.125Z,65.46
2017-05-17T03:54:11.556Z,66.71
2017-05-17T03:55:12.984Z,67.00
2017-05-17T03:56:14.420Z,66.61
2017-05-17T03:57:15.850Z,67.38
2017-05-17T03:58:17.287Z,67.19
2017-05-17T03:59:18.725Z,66.71
2017-05-17T04:00:20.162Z,66.81
2017-05-17T04:01:21.599Z,67.10
2017-05-17T04:02:23.034Z,65.75
2017-05-17T04:03:24.459Z,69.50
2017-05-17T04:04:25.890Z,68.92
2017-05-17T04:05:27.318Z,69.60
2017-05-17T04:06:28.750Z,69.79
2017-05-17T04:07:30.181Z,70.27
2017-05-17T04:08:31.610Z,68.92
2017-05-17T04:09:33.045Z,67.58
2017-05-17T04:10:34.476Z,68.35
2017-05-17T04:11:35.902Z,67.77
2017-05-17T04:12:37.335Z,69.40
2017-05-17T04:13:38.765Z,69.69
2017-05-17T04:14:40.192Z,69.69
2017-05-17T04:15:41.627Z,71.29
2017-05-17T04:16:43.057Z,67.96
2017-05-17T04:17:44.490Z,69.40
2017-05-17T04:18:45.923Z,69.40
2017-05-17T04:19:47.354Z,66.14
2017-05-17T04:20:48.796Z,65.84
2017-05-17T04:21:50.232Z,66.84
2017-05-17T04:22:51.665Z,66.55
2017-05-17T04:23:53.091Z,70.88
2017-05-17T04:24:54.531Z,70.68
2017-05-17T04:25:55.978Z,71.04
2017-05-17T04:26:57.420Z,71.81
2017-05-17T04:27:58.855Z,71.71
2017-05-17T04:29:00.293Z,72.38
2017-05-17T04:30:01.721Z,72.38
2017-05-17T04:31:03.158Z,74.11
2017-05-17T04:32:04.586Z,73.92
2017-05-17T04:33:06.026Z,73.83
2017-05-17T04:34:07.458Z,73.25
2017-05-17T04:35:08.894Z,74.21
2017-05-17T04:36:10.330Z,73.73
2017-05-17T04:37:11.766Z,72.96
2017-05-17T04:38:13.201Z,72.19
2017-05-17T04:39:14.637Z,69.21
2017-05-17T04:40:16.068Z,69.79
2017-05-17T04:41:17.512Z,71.14
2017-05-17T04:42:18.937Z,70.56
2017-05-17T04:43:20.384Z,70.07
2017-05-17T04:44:21.813Z,71.14
2017-05-17T04:45:23.244Z,70.84
2017-05-17T04:46:24.682Z,70.94
2017-05-17T04:47:26.118Z,69.69
2017-05-17T04:48:27.549Z,69.69
2017-05-17T04:49:28.987Z,70.75
2017-05-17T04:50:30.425Z,70.84
2017-05-17T04:51:31.851Z,70.37
2017-05-17T04:52:33.314Z,69.50
2017-05-17T04:53:34.744Z,68.86
2017-05-17T04:54:36.179Z,67.58
2017-05-17T04:55:37.617Z,69.53
2017-05-17T04:56:39.088Z,67.96
2017-05-17T04:57:40.526Z,69.34
2017-05-17T04:58:41.960Z,66.71
2017-05-17T04:59:43.398Z,68.48
2017-05-17T05:00:44.836Z,68.67
2017-05-17T05:01:46.271Z,66.36
2017-05-17T05:02:47.711Z,66.07
2017-05-17T05:03:49.157Z,67.90
2017-05-17T05:04:50.595Z,68.38
2017-05-17T05:05:52.036Z,66.74
2017-05-17T05:06:53.472Z,66.94
2017-05-17T05:07:54.961Z,65.40
2017-05-17T05:08:56.398Z,65.01
2017-05-17T05:09:57.838Z,64.56
2017-05-17T05:10:59.323Z,64.28
2017-05-17T05:12:00.762Z,63.79
2017-05-17T05:13:02.196Z,65.91
2017-05-17T05:14:04.339Z,65.62
2017-05-17T05:15:05.784Z,66.68
2017-05-17T05:16:07.223Z,65.91
2017-05-17T05:17:08.650Z,66.10
2017-05-17T05:18:10.085Z,64.18
2017-05-17T05:19:11.524Z,64.56
2017-05-17T05:20:12.955Z,63.51
2017-05-17T05:21:14.400Z,64.47
2017-05-17T05:22:15.831Z,65.24
2017-05-17T05:23:17.265Z,66.10
2017-05-17T05:24:18.699Z,65.62
2017-05-17T05:25:20.134Z,65.24
2017-05-17T05:26:21.566Z,68.41
2017-05-17T05:27:23.517Z,66.10
2017-05-17T05:28:24.943Z,66.78
2017-05-17T05:29:26.378Z,65.81
2017-05-17T05:30:27.817Z,65.24
2017-05-17T05:31:29.255Z,65.43
2017-05-17T05:32:30.684Z,66.10
2017-05-17T05:33:32.121Z,66.97
2017-05-17T05:34:33.564Z,65.53
2017-05-17T05:35:35.001Z,67.26
2017-05-17T05:36:36.441Z,65.33
2017-05-17T05:37:37.864Z,64.76
2017-05-17T05:38:39.306Z,65.05
2017-05-17T05:39:40.746Z,65.14
2017-05-17T05:40:42.181Z,63.73
2017-05-17T05:41:43.613Z,65.43
2017-05-17T05:42:45.050Z,66.10
2017-05-17T05:43:46.483Z,62.83
2017-05-17T05:44:47.915Z,62.67
2017-05-17T05:45:49.349Z,63.34
2017-05-17T05:46:50.832Z,64.18
2017-05-17T05:47:52.262Z,63.99
2017-05-17T05:48:53.708Z,64.02
2017-05-17T05:49:55.146Z,63.60
2017-05-17T05:50:56.586Z,62.87
2017-05-17T05:51:58.918Z,65.33
2017-05-17T05:53:00.353Z,63.54
2017-05-17T05:54:02.381Z,63.25
2017-05-17T05:55:03.814Z,62.38
2017-05-17T05:56:05.248Z,62.48
2017-05-17T05:57:06.681Z,61.04
2017-05-17T05:58:08.115Z,60.84
2017-05-17T05:59:09.549Z,60.17
2017-05-17T06:00:10.985Z,62.57
2017-05-17T06:01:12.426Z,60.36
2017-05-17T06:02:13.860Z,61.22
2017-05-17T06:03:15.292Z,61.71
2017-05-17T06:04:16.723Z,63.15
2017-05-17T06:05:18.158Z,62.29
2017-05-17T06:06:19.586Z,59.72
2017-05-17T06:07:21.018Z,60.10
2017-05-17T06:08:22.452Z,61.22
2017-05-17T06:09:23.894Z,59.72
2017-05-17T06:10:25.322Z,58.95
2017-05-17T06:11:26.756Z,61.45
2017-05-17T06:12:28.188Z,59.62
2017-05-17T06:13:29.621Z,61.55
2017-05-17T06:14:31.062Z,59.33
2017-05-17T06:15:32.505Z,60.75
2017-05-17T06:16:33.944Z,59.30
2017-05-17T06:17:35.381Z,58.95
2017-05-17T06:18:36.816Z,58.56
2017-05-17T06:19:38.252Z,59.43
2017-05-17T06:20:39.690Z,58.65
2017-05-17T06:21:41.121Z,59.62
2017-05-17T06:22:42.558Z,58.95
2017-05-17T06:23:43.987Z,58.37
2017-05-17T06:24:45.420Z,58.75
2017-05-17T06:25:46.859Z,58.85
2017-05-17T06:26:48.294Z,58.95
2017-05-17T06:27:49.734Z,55.96
2017-05-17T06:28:51.165Z,59.04
2017-05-17T06:29:52.601Z,57.40
2017-05-17T06:30:54.031Z,58.47
2017-05-17T06:31:55.471Z,57.43
2017-05-17T06:32:56.909Z,57.79
2017-05-17T06:33:58.345Z,58.27
2017-05-17T06:34:59.779Z,57.98
2017-05-17T06:36:01.212Z,58.95
2017-05-17T06:37:02.645Z,56.54
2017-05-17T06:38:04.080Z,56.09
2017-05-17T06:39:05.516Z,57.40
2017-05-17T06:40:06.948Z,57.79
2017-05-17T06:41:08.388Z,59.04
2017-05-17T06:42:09.823Z,56.37
2017-05-17T06:43:11.266Z,58.59
2017-05-17T06:44:12.704Z,55.31
2017-05-17T06:45:14.143Z,55.02
2017-05-17T06:46:15.584Z,55.12
2017-05-17T06:47:17.024Z,53.77
2017-05-17T06:48:18.466Z,54.86
2017-05-17T06:49:19.914Z,56.18
2017-05-17T06:50:21.346Z,53.89
2017-05-17T06:51:22.789Z,53.51
2017-05-17T06:52:24.230Z,56.18
2017-05-17T06:53:25.661Z,54.28
2017-05-17T06:54:27.098Z,53.31
2017-05-17T06:55:28.533Z,51.97
2017-05-17T06:56:29.974Z,54.57
2017-05-17T06:57:31.411Z,53.51
2017-05-17T06:58:32.937Z,56.30
2017-05-17T06:59:34.321Z,53.99
2017-05-17T07:00:35.754Z,53.05
2017-05-17T07:01:37.214Z,52.95
2017-05-17T07:02:38.693Z,53.73
2017-05-17T07:03:40.135Z,53.34
2017-05-17T07:04:41.576Z,53.63
2017-05-17T07:05:43.011Z,51.12
2017-05-17T07:06:44.448Z,51.03
2017-05-17T07:07:45.883Z,51.32
2017-05-17T07:08:47.363Z,53.63
2017-05-17T07:09:48.792Z,52.69
2017-05-17T07:10:50.231Z,51.92
2017-05-17T07:11:51.666Z,51.25
2017-05-17T07:12:53.111Z,52.01
2017-05-17T07:13:54.552Z,50.67
2017-05-17T07:14:55.994Z,51.25
2017-05-17T07:15:57.432Z,51.34
2017-05-17T07:16:58.877Z,49.70
2017-05-17T07:18:00.312Z,50.11
2017-05-17T07:19:01.755Z,51.44
2017-05-17T07:20:03.202Z,50.86
2017-05-17T07:21:04.702Z,51.25
2017-05-17T07:22:06.141Z,48.74
2017-05-17T07:23:07.582Z,49.44
2017-05-17T07:24:09.013Z,49.92
2017-05-17T07:25:10.444Z,49.44
2017-05-17T07:26:11.883Z,50.98
2017-05-17T07:27:13.320Z,50.98
2017-05-17T07:28:14.764Z,50.11
2017-05-17T07:29:16.204Z,49.34
2017-05-17T07:30:17.635Z,48.76
2017-05-17T07:31:19.089Z,49.37
2017-05-17T07:32:20.506Z,48.49
2017-05-17T07:33:21.995Z,50.59
2017-05-17T07:34:23.397Z,50.98
2017-05-17T07:35:24.838Z,47.81
2017-05-17T07:36:26.276Z,50.31
2017-05-17T07:37:27.715Z,49.37
2017-05-17T07:38:29.144Z,49.46
2017-05-17T07:39:30.591Z,48.01
2017-05-17T07:40:32.022Z,49.37
2017-05-17T07:41:33.467Z,47.72
2017-05-17T07:42:34.906Z,47.91
2017-05-17T07:43:36.344Z,47.24
2017-05-17T07:44:37.790Z,46.75
2017-05-17T07:45:39.252Z,47.53
2017-05-17T07:46:40.702Z,46.10
2017-05-17T07:47:42.138Z,45.62
2017-05-17T07:48:43.572Z,47.74
2017-05-17T07:49:45.103Z,44.65
2017-05-17T07:50:46.545Z,46.00
2017-05-17T07:51:47.982Z,45.04
2017-05-17T07:52:49.417Z,46.20
2017-05-17T07:53:50.850Z,43.78
2017-05-17T07:54:52.285Z,43.51
2017-05-17T07:55:53.711Z,44.19
2017-05-17T07:56:55.158Z,46.12
2017-05-17T07:57:56.595Z,44.38
2017-05-17T07:58:58.029Z,43.61
2017-05-17T07:59:59.466Z,43.71
2017-05-17T08:01:00.912Z,43.24
2017-05-17T08:02:02.350Z,45.08
2017-05-17T08:03:04.270Z,44.29
2017-05-17T08:04:05.710Z,46.03
2017-05-17T08:05:07.158Z,44.31
2017-05-17T08:06:08.595Z,44.21
2017-05-17T08:07:10.035Z,43.63
2017-05-17T08:08:11.466Z,43.73
2017-05-17T08:09:12.902Z,44.79
2017-05-17T08:10:14.331Z,44.50
2017-05-17T08:11:15.774Z,43.34
2017-05-17T08:12:17.215Z,45.18
2017-05-17T08:13:18.654Z,43.15
2017-05-17T08:14:20.109Z,42.76
2017-05-17T08:15:21.542Z,45.08
2017-05-17T08:16:22.978Z,42.66
2017-05-17T08:17:24.418Z,42.28
2017-05-17T08:18:25.858Z,42.59
2017-05-17T08:19:27.291Z,43.63
2017-05-17T08:20:28.725Z,41.79
2017-05-17T08:21:30.164Z,41.62
2017-05-17T08:22:31.604Z,44.62
2017-05-17T08:23:33.047Z,44.23
2017-05-17T08:24:34.482Z,44.81
2017-05-17T08:25:35.928Z,43.27
2017-05-17T08:26:37.355Z,42.78
2017-05-17T08:27:38.796Z,42.88
2017-05-17T08:28:40.242Z,45.10
2017-05-17T08:29:41.691Z,41.82
2017-05-17T08:30:43.131Z,40.48
2017-05-17T08:31:44.566Z,39.32
2017-05-17T08:32:46.004Z,41.64
2017-05-17T08:33:47.447Z,40.96
2017-05-17T08:34:48.888Z,42.03
2017-05-17T08:35:50.326Z,41.83
2017-05-17T08:36:51.765Z,41.64
2017-05-17T08:37:53.261Z,39.70
2017-05-17T08:38:54.644Z,40.69
2017-05-17T08:39:56.093Z,41.66
2017-05-17T08:40:57.537Z,41.66
2017-05-17T08:41:58.980Z,39.82
2017-05-17T08:43:00.420Z,38.95
2017-05-17T08:44:01.854Z,40.50
2017-05-17T08:45:03.290Z,41.95
2017-05-17T08:46:04.732Z,41.56
2017-05-17T08:47:06.166Z,39.14
2017-05-17T08:48:07.606Z,38.96
2017-05-17T08:49:09.045Z,40.59
2017-05-17T08:50:10.487Z,41.37
2017-05-17T08:51:11.927Z,39.62
2017-05-17T08:52:13.365Z,39.74
2017-05-17T08:53:14.806Z,39.55
2017-05-17T08:54:16.243Z,40.61
2017-05-17T08:55:17.677Z,40.33
2017-05-17T08:56:19.108Z,39.94
2017-05-17T08:57:20.545Z,37.61
2017-05-17T08:58:21.986Z,38.29
2017-05-17T08:59:23.427Z,40.91
2017-05-17T09:00:24.865Z,40.23
2017-05-17T09:01:26.302Z,41.49
2017-05-17T09:02:27.744Z,39.84
2017-05-17T09:03:29.868Z,40.42
2017-05-17T09:04:30.567Z,39.45
2017-05-17T09:05:32.006Z,41.10
2017-05-17T09:06:33.452Z,41.68
2017-05-17T09:07:34.893Z,39.67
2017-05-17T09:08:36.343Z,40.44
2017-05-17T09:09:37.779Z,38.99
2017-05-17T09:10:39.226Z,41.99
2017-05-17T09:11:40.655Z,41.70
2017-05-17T09:12:42.097Z,38.79
2017-05-17T09:13:43.540Z,39.37
2017-05-17T09:14:44.976Z,38.40
2017-05-17T09:15:46.415Z,38.99
2017-05-17T09:16:47.855Z,39.49
2017-05-17T09:17:49.297Z,39.69
2017-05-17T09:18:50.737Z,39.78
2017-05-17T09:19:52.180Z,40.46
2017-05-17T09:20:53.614Z,38.81
2017-05-17T09:21:55.057Z,38.32
2017-05-17T09:22:56.494Z,36.69
2017-05-17T09:23:57.937Z,40.08
2017-05-17T09:24:59.414Z,37.57
2017-05-17T09:26:00.861Z,39.61
2017-05-17T09:27:02.308Z,37.76
2017-05-17T09:28:03.753Z,37.37
2017-05-17T09:29:05.195Z,38.83
2017-05-17T09:30:06.636Z,38.54
2017-05-17T09:31:08.072Z,38.25
2017-05-17T09:32:09.517Z,37.96
2017-05-17T09:33:10.961Z,36.69
2017-05-17T09:34:12.402Z,38.64
2017-05-17T09:35:13.843Z,36.60
2017-05-17T09:36:15.280Z,37.96
2017-05-17T09:37:16.723Z,37.39
2017-05-17T09:38:18.166Z,37.78
2017-05-17T09:39:19.605Z,37.78
2017-05-17T09:40:21.043Z,40.69
2017-05-17T09:41:22.486Z,36.04
2017-05-17T09:42:24.563Z,37.10
2017-05-17T09:43:27.316Z,39.26
2017-05-17T09:44:28.784Z,39.26
2017-05-17T09:45:30.224Z,35.84
2017-05-17T09:46:31.669Z,38.46
2017-05-17T09:47:33.110Z,36.71
2017-05-17T09:48:34.543Z,37.76
2017-05-17T09:49:35.980Z,36.52
2017-05-17T09:50:37.423Z,39.43
2017-05-17T09:51:38.869Z,39.84
2017-05-17T09:52:40.307Z,38.77
2017-05-17T09:53:41.744Z,37.41
2017-05-17T09:54:43.222Z,36.44
2017-05-17T09:55:44.657Z,35.86
2017-05-17T09:56:46.104Z,38.39
2017-05-17T09:57:47.557Z,38.19
2017-05-17T09:58:48.999Z,36.46
2017-05-17T09:59:50.451Z,38.01
2017-05-17T10:00:51.903Z,36.75
2017-05-17T10:01:53.343Z,35.10
2017-05-17T10:02:54.791Z,35.58
2017-05-17T10:03:56.233Z,35.37
2017-05-17T10:04:57.671Z,36.54
2017-05-17T10:05:59.114Z,35.39
2017-05-17T10:07:00.553Z,36.44
2017-05-17T10:08:02.000Z,36.54
2017-05-17T10:09:03.440Z,34.50
2017-05-17T10:10:04.924Z,35.68
2017-05-17T10:11:06.362Z,35.78
2017-05-17T10:12:07.799Z,35.19
2017-05-17T10:13:09.259Z,34.33
2017-05-17T10:14:10.699Z,35.89
2017-05-17T10:15:12.141Z,35.39
2017-05-17T10:16:13.582Z,36.46
2017-05-17T10:17:15.026Z,35.02
2017-05-17T10:18:16.466Z,35.60
2017-05-17T10:19:18.635Z,34.63
2017-05-17T10:20:20.074Z,34.82
2017-05-17T10:21:21.529Z,36.77
2017-05-17T10:22:22.966Z,33.85
2017-05-17T10:23:24.406Z,35.81
2017-05-17T10:24:25.853Z,35.03
2017-05-17T10:25:27.295Z,35.23
2017-05-17T10:26:28.745Z,35.91
2017-05-17T10:27:30.191Z,35.13
2017-05-17T10:28:31.630Z,35.52
2017-05-17T10:29:33.067Z,34.25
2017-05-17T10:30:34.523Z,32.99
2017-05-17T10:31:36.670Z,32.21
2017-05-17T10:32:38.815Z,32.60
2017-05-17T10:33:40.253Z,32.79
2017-05-17T10:34:41.692Z,33.28
2017-05-17T10:35:43.139Z,34.94
2017-05-17T10:36:44.576Z,35.33
2017-05-17T10:37:46.020Z,32.70
2017-05-17T10:38:47.459Z,32.23
2017-05-17T10:39:48.896Z,35.44
2017-05-17T10:40:50.337Z,33.20
2017-05-17T10:41:51.779Z,33.12
2017-05-17T10:42:53.223Z,31.93
2017-05-17T10:43:54.663Z,35.05
2017-05-17T10:44:56.116Z,35.25
2017-05-17T10:45:57.555Z,33.02
2017-05-17T10:46:58.992Z,34.29
2017-05-17T10:48:00.435Z,32.53
2017-05-17T10:49:01.890Z,34.39
2017-05-17T10:50:03.325Z,31.46
2017-05-17T10:51:04.766Z,31.57
2017-05-17T10:52:06.215Z,32.16
2017-05-17T10:53:07.652Z,31.17
2017-05-17T10:54:09.099Z,32.84
2017-05-17T10:55:10.526Z,32.65
2017-05-17T10:56:11.975Z,32.34
2017-05-17T10:57:13.416Z,32.05
2017-05-17T10:58:14.852Z,34.00
2017-05-17T10:59:16.300Z,31.46
2017-05-17T11:00:17.741Z,34.11
2017-05-17T11:01:19.181Z,31.87
2017-05-17T11:02:20.635Z,29.13
2017-05-17T11:03:22.078Z,31.07
2017-05-17T11:04:23.518Z,33.61
2017-05-17T11:05:24.959Z,34.79
2017-05-17T11:06:26.413Z,33.72
2017-05-17T11:07:27.851Z,31.40
2017-05-17T11:08:29.295Z,31.20
2017-05-17T11:09:30.738Z,32.28
2017-05-17T11:10:32.174Z,31.48
2017-05-17T11:11:33.676Z,31.59
2017-05-17T11:12:35.121Z,32.08
2017-05-17T11:13:36.568Z,30.60
2017-05-17T11:14:38.014Z,32.57
2017-05-17T11:15:39.468Z,31.38
2017-05-17T11:16:40.924Z,32.18
2017-05-17T11:17:42.381Z,30.41
2017-05-17T11:18:43.821Z,32.08
2017-05-17T11:19:45.421Z,33.23
2017-05-17T11:20:46.865Z,32.06
2017-05-17T11:21:48.305Z,32.84
2017-05-17T11:22:49.748Z,32.28
2017-05-17T11:23:51.197Z,30.91
2017-05-17T11:24:52.638Z,32.76
2017-05-17T11:25:54.089Z,32.28
2017-05-17T11:26:55.544Z,30.81
2017-05-17T11:27:56.988Z,32.08
2017-05-17T11:28:58.428Z,31.98
2017-05-17T11:29:59.871Z,32.39
2017-05-17T11:31:01.328Z,33.34
2017-05-17T11:32:02.771Z,33.07
2017-05-17T11:33:04.209Z,32.57
2017-05-17T11:34:05.653Z,30.62
2017-05-17T11:35:07.101Z,29.95
2017-05-17T11:36:08.538Z,31.02
2017-05-17T11:37:09.983Z,32.60
2017-05-17T11:38:11.424Z,32.01
2017-05-17T11:39:12.871Z,30.15
2017-05-17T11:40:14.313Z,31.74
2017-05-17T11:41:15.753Z,30.84
2017-05-17T11:42:17.196Z,29.95
2017-05-17T11:43:19.411Z,30.73
2017-05-17T11:44:20.858Z,30.34
2017-05-17T11:45:22.299Z,31.51
2017-05-17T11:46:23.738Z,31.04
2017-05-17T11:47:25.179Z,31.70
2017-05-17T11:48:26.635Z,31.33
2017-05-17T11:49:28.079Z,29.79
2017-05-17T11:50:29.526Z,30.86
2017-05-17T11:51:30.975Z,30.96
2017-05-17T11:52:32.471Z,31.93
2017-05-17T11:53:33.854Z,29.18
2017-05-17T11:54:35.301Z,29.39
2017-05-17T11:55:36.744Z,30.66
2017-05-17T11:56:38.182Z,30.27
2017-05-17T11:57:39.623Z,29.88
2017-05-17T11:58:41.068Z,30.26
2017-05-17T11:59:42.505Z,30.47
2017-05-17T12:00:43.951Z,29.86
2017-05-17T12:01:45.385Z,29.69
2017-05-17T12:02:46.839Z,32.13
2017-05-17T12:03:48.278Z,29.00
2017-05-17T12:04:49.729Z,29.59
2017-05-17T12:05:51.194Z,28.82
2017-05-17T12:06:52.625Z,31.46
2017-05-17T12:07:54.073Z,29.00
2017-05-17T12:08:55.508Z,29.90
2017-05-17T12:09:56.962Z,31.36
2017-05-17T12:10:58.402Z,31.26
2017-05-17T12:11:59.852Z,27.73
2017-05-17T12:13:01.293Z,29.88
2017-05-17T12:14:02.742Z,27.93
2017-05-17T12:15:04.233Z,29.00
2017-05-17T12:16:05.626Z,31.65
2017-05-17T12:17:07.071Z,29.02
2017-05-17T12:18:10.101Z,28.81
2017-05-17T12:19:11.557Z,29.99
2017-05-17T12:20:13.000Z,29.99
2017-05-17T12:21:15.203Z,30.58
2017-05-17T12:22:16.651Z,30.19
2017-05-17T12:23:18.087Z,28.72
2017-05-17T12:24:19.532Z,29.99
2017-05-17T12:25:20.969Z,27.75
2017-05-17T12:26:22.416Z,29.60
2017-05-17T12:27:23.864Z,28.63
2017-05-17T12:28:25.313Z,31.36
2017-05-17T12:29:26.751Z,29.02
2017-05-17T12:30:28.192Z,29.98
2017-05-17T12:31:29.638Z,29.11
2017-05-17T12:32:31.083Z,29.71
2017-05-17T12:33:32.531Z,28.25
2017-05-17T12:34:33.969Z,27.95
2017-05-17T12:35:35.417Z,28.05
2017-05-17T12:36:36.862Z,29.83
2017-05-17T12:37:38.294Z,30.00
2017-05-17T12:38:39.741Z,29.34
2017-05-17T12:39:41.190Z,27.48
2017-05-17T12:40:42.634Z,25.81
2017-05-17T12:41:44.086Z,28.05
2017-05-17T12:42:45.529Z,28.34
2017-05-17T12:43:47.722Z,28.25
2017-05-17T12:44:49.169Z,29.13
2017-05-17T12:45:52.218Z,27.86
2017-05-17T12:46:53.669Z,29.03
2017-05-17T12:47:56.078Z,29.13
2017-05-17T12:48:57.520Z,26.87
2017-05-17T12:49:58.980Z,27.94
2017-05-17T12:51:00.419Z,29.70
2017-05-17T12:52:01.891Z,29.91
2017-05-17T12:53:03.341Z,26.98
2017-05-17T12:54:04.813Z,26.98
2017-05-17T12:55:06.254Z,27.65
2017-05-17T12:56:07.706Z,30.00
2017-05-17T12:57:09.160Z,29.71
2017-05-17T12:58:10.607Z,26.78
2017-05-17T12:59:12.873Z,27.08
2017-05-17T13:00:14.319Z,29.03
2017-05-17T13:01:15.771Z,27.76
2017-05-17T13:02:17.222Z,28.06
2017-05-17T13:03:18.683Z,28.16
2017-05-17T13:04:20.127Z,28.64
2017-05-17T13:05:21.584Z,29.61
2017-05-17T13:06:23.045Z,27.95
2017-05-17T13:07:24.489Z,27.95
2017-05-17T13:08:25.940Z,29.22
2017-05-17T13:09:27.384Z,28.64
2017-05-17T13:10:28.835Z,28.93
2017-05-17T13:11:30.275Z,30.02